createdAt,value
2022-10-17T00:01:08.441Z,12.90
2022-10-17T00:03:38.262Z,12.90
2022-10-17T00:06:12.437Z,12.90
2022-10-17T00:08:41.427Z,12.90
2022-10-17T00:11:22.363Z,12.90
2022-10-17T00:13:54.245Z,12.80
2022-10-17T00:16:30.431Z,12.80
2022-10-17T00:18:59.004Z,12.70
2022-10-17T00:21:27.330Z,12.60
2022-10-17T00:23:55.411Z,12.60
2022-10-17T00:26:23.785Z,12.60
2022-10-17T00:28:53.142Z,12.50
2022-10-17T00:31:22.183Z,12.40
2022-10-17T00:33:52.946Z,12.40
2022-10-17T00:36:23.848Z,12.40
2022-10-17T00:38:55.698Z,12.40
2022-10-17T00:41:26.812Z,12.40
2022-10-17T00:44:08.192Z,12.40
2022-10-17T00:46:38.831Z,12.40
2022-10-17T00:49:12.767Z,12.40
2022-10-17T00:51:46.417Z,12.30
2022-10-17T00:54:19.445Z,12.30
2022-10-17T00:56:48.703Z,12.20
2022-10-17T00:59:20.432Z,12.20
2022-10-17T01:02:02.150Z,12.20
2022-10-17T01:04:30.974Z,12.30
2022-10-17T01:06:59.464Z,12.30
2022-10-17T01:09:28.092Z,12.30
2022-10-17T01:12:15.880Z,12.30
2022-10-17T01:14:58.115Z,12.30
2022-10-17T01:17:40.261Z,12.40
2022-10-17T01:20:14.872Z,12.40
2022-10-17T01:22:54.471Z,12.50
2022-10-17T01:26:03.774Z,12.50
2022-10-17T01:31:19.624Z,12.50
2022-10-17T01:33:59.884Z,12.50
2022-10-17T01:36:37.148Z,12.40
2022-10-17T01:39:28.098Z,12.40
2022-10-17T01:41:58.551Z,12.40
2022-10-17T01:44:43.255Z,12.30
2022-10-17T01:47:37.884Z,12.30
2022-10-17T01:50:20.334Z,12.20
2022-10-17T01:53:16.061Z,12.20
2022-10-17T01:55:47.576Z,12.10
2022-10-17T01:58:32.006Z,12.00
2022-10-17T02:01:04.694Z,11.90
2022-10-17T02:03:34.854Z,11.90
2022-10-17T02:06:04.200Z,11.90
2022-10-17T02:08:50.074Z,11.80
2022-10-17T02:11:25.086Z,11.80
2022-10-17T02:14:35.738Z,11.70
2022-10-17T02:17:23.269Z,11.70
2022-10-17T02:19:51.689Z,11.70
2022-10-17T02:22:31.281Z,11.70
2022-10-17T02:25:08.257Z,11.70
2022-10-17T02:27:51.353Z,11.70
2022-10-17T02:30:30.906Z,11.80
2022-10-17T02:33:10.436Z,11.80
2022-10-17T02:35:43.674Z,11.70
2022-10-17T02:38:12.177Z,11.70
2022-10-17T02:40:40.982Z,11.70
2022-10-17T02:43:09.892Z,11.70
2022-10-17T02:45:39.122Z,11.70
2022-10-17T02:48:12.644Z,11.70
2022-10-17T02:50:53.232Z,11.70
2022-10-17T02:54:01.018Z,11.90
2022-10-17T02:56:35.137Z,12.10
2022-10-17T02:59:06.759Z,12.10
2022-10-17T03:01:37.076Z,12.10
2022-10-17T03:04:11.508Z,12.10
2022-10-17T03:06:41.396Z,12.10
2022-10-17T03:09:10.271Z,12.10
2022-10-17T03:11:38.770Z,12.10
2022-10-17T03:14:08.424Z,12.10
2022-10-17T03:16:36.397Z,12.20
2022-10-17T03:19:06.097Z,12.20
2022-10-17T03:21:36.570Z,12.10
2022-10-17T03:24:05.431Z,12.10
2022-10-17T03:26:34.454Z,12.00
2022-10-17T03:29:04.255Z,11.90
2022-10-17T03:31:33.970Z,12.00
2022-10-17T03:34:04.202Z,11.90
2022-10-17T03:36:32.253Z,12.00
2022-10-17T03:39:00.337Z,12.00
2022-10-17T03:41:29.142Z,11.90
2022-10-17T03:43:57.513Z,11.90
2022-10-17T03:46:26.515Z,11.90
2022-10-17T03:48:56.066Z,12.00
2022-10-17T03:51:24.469Z,12.00
2022-10-17T03:53:57.793Z,11.90
2022-10-17T03:56:26.500Z,12.00
2022-10-17T03:59:00.162Z,11.90
2022-10-17T04:01:30.101Z,11.90
2022-10-17T04:03:59.156Z,11.90
2022-10-17T04:06:31.079Z,12.00
2022-10-17T04:09:00.006Z,12.00
2022-10-17T04:11:48.382Z,11.90
2022-10-17T04:14:17.426Z,11.90
2022-10-17T04:16:45.429Z,11.90
2022-10-17T04:19:18.502Z,11.80
2022-10-17T04:21:48.878Z,11.80
2022-10-17T04:24:16.908Z,11.80
2022-10-17T04:26:54.880Z,11.80
2022-10-17T04:29:29.157Z,11.80
2022-10-17T04:32:12.298Z,11.80
2022-10-17T04:34:44.489Z,11.90
2022-10-17T04:37:12.509Z,11.90
2022-10-17T04:39:40.979Z,11.90
2022-10-17T04:42:09.681Z,11.90
2022-10-17T04:44:38.623Z,11.90
2022-10-17T04:47:08.511Z,11.80
2022-10-17T04:49:36.625Z,11.80
2022-10-17T04:52:10.316Z,11.80
2022-10-17T04:54:45.943Z,11.80
2022-10-17T04:57:15.244Z,11.80
2022-10-17T04:59:51.690Z,11.70
2022-10-17T05:02:25.699Z,11.70
2022-10-17T05:04:54.103Z,11.70
2022-10-17T05:07:22.642Z,11.80
2022-10-17T05:10:03.951Z,11.80
2022-10-17T05:12:33.530Z,11.70
2022-10-17T05:15:01.498Z,11.80
2022-10-17T05:17:32.725Z,11.80
2022-10-17T05:20:01.109Z,11.90
2022-10-17T05:22:32.106Z,11.90
2022-10-17T05:25:01.170Z,11.90
2022-10-17T05:27:31.453Z,12.00
2022-10-17T05:30:00.035Z,12.00
2022-10-17T05:32:32.935Z,11.80
2022-10-17T05:35:00.960Z,11.80
2022-10-17T05:37:30.979Z,11.90
2022-10-17T05:39:59.580Z,11.80
2022-10-17T05:42:28.639Z,12.00
2022-10-17T05:44:58.566Z,12.30
2022-10-17T05:47:29.186Z,12.50
2022-10-17T05:49:57.794Z,12.60
2022-10-17T05:52:33.436Z,12.90
2022-10-17T05:55:12.067Z,13.10
2022-10-17T05:57:40.975Z,13.20
2022-10-17T06:00:16.116Z,13.50
2022-10-17T06:02:46.676Z,13.80
2022-10-17T06:05:17.363Z,14.10
2022-10-17T06:07:46.140Z,14.20
2022-10-17T06:10:16.689Z,14.30
2022-10-17T06:12:45.570Z,14.30
2022-10-17T06:15:14.054Z,14.50
2022-10-17T06:17:45.282Z,14.50
2022-10-17T06:20:14.405Z,14.80
2022-10-17T06:22:43.256Z,14.80
2022-10-17T06:25:17.434Z,15.30
2022-10-17T06:27:45.983Z,15.70
2022-10-17T06:30:14.214Z,15.90
2022-10-17T06:32:43.044Z,16.00
2022-10-17T06:35:11.650Z,16.00
2022-10-17T06:37:42.588Z,15.50
2022-10-17T06:40:12.360Z,15.40
2022-10-17T06:42:41.675Z,15.10
2022-10-17T06:45:25.116Z,15.60
2022-10-17T06:48:09.346Z,15.80
2022-10-17T06:51:00.274Z,16.40
2022-10-17T06:53:31.298Z,16.40
2022-10-17T06:56:10.428Z,16.10
2022-10-17T06:58:54.857Z,16.20
2022-10-17T07:01:26.967Z,16.30
2022-10-17T07:03:58.637Z,16.40
2022-10-17T07:06:29.429Z,16.40
2022-10-17T07:09:02.995Z,16.80
2022-10-17T07:11:30.991Z,16.90
2022-10-17T07:13:59.036Z,16.70
2022-10-17T07:16:27.493Z,16.80
2022-10-17T07:19:04.486Z,16.90
2022-10-17T07:21:39.144Z,17.30
2022-10-17T07:24:09.323Z,17.10
2022-10-17T07:26:37.399Z,16.60
2022-10-17T07:29:06.996Z,16.60
2022-10-17T07:31:58.647Z,17.00
2022-10-17T07:34:27.735Z,17.10
2022-10-17T07:36:56.180Z,17.10
2022-10-17T07:39:24.314Z,16.90
2022-10-17T07:41:52.249Z,17.20
2022-10-17T07:44:21.336Z,17.30
2022-10-17T07:46:51.922Z,17.30
2022-10-17T07:49:20.100Z,17.10
2022-10-17T07:51:49.684Z,17.40
2022-10-17T07:54:18.440Z,17.40
2022-10-17T07:56:50.651Z,17.30
2022-10-17T07:59:19.797Z,17.30
2022-10-17T08:01:48.871Z,18.10
2022-10-17T08:04:17.647Z,18.80
2022-10-17T08:06:46.314Z,19.10
2022-10-17T08:09:14.621Z,19.70
2022-10-17T08:11:45.834Z,20.00
2022-10-17T08:14:39.956Z,19.90
2022-10-17T08:17:08.458Z,20.10
2022-10-17T08:19:41.524Z,20.10
2022-10-17T08:22:09.954Z,20.10
2022-10-17T08:24:38.562Z,20.30
2022-10-17T08:27:11.688Z,20.90
2022-10-17T08:29:43.937Z,21.10
2022-10-17T08:32:12.681Z,21.10
2022-10-17T08:34:41.127Z,21.40
2022-10-17T08:39:37.732Z,21.70
2022-10-17T08:42:43.221Z,22.30
2022-10-17T08:45:55.067Z,22.50
2022-10-17T08:48:28.161Z,22.60
2022-10-17T08:51:12.738Z,22.20
2022-10-17T08:53:52.262Z,22.40
2022-10-17T08:56:47.513Z,22.10
2022-10-17T08:59:25.189Z,21.90
2022-10-17T09:02:15.373Z,21.90
2022-10-17T09:05:08.122Z,22.80
2022-10-17T09:07:47.491Z,23.70
2022-10-17T09:10:38.420Z,23.90
2022-10-17T09:13:29.980Z,23.90
2022-10-17T09:16:04.173Z,23.80
2022-10-17T09:18:35.680Z,22.80
2022-10-17T09:21:22.270Z,22.70
2022-10-17T09:24:08.806Z,23.60
2022-10-17T09:26:40.835Z,23.60
2022-10-17T09:29:21.749Z,22.70
2022-10-17T09:32:01.624Z,22.80
2022-10-17T09:34:31.668Z,22.80
2022-10-17T09:37:01.808Z,23.80
2022-10-17T09:39:33.265Z,24.50
2022-10-17T09:42:03.306Z,24.30
2022-10-17T09:44:47.857Z,24.50
2022-10-17T09:47:41.422Z,23.40
2022-10-17T09:50:30.980Z,23.40
2022-10-17T09:53:11.353Z,24.30
2022-10-17T09:55:43.782Z,25.00
2022-10-17T09:58:11.954Z,24.70
2022-10-17T10:00:49.055Z,24.70
2022-10-17T10:03:23.026Z,24.50
2022-10-17T10:06:14.960Z,24.40
2022-10-17T10:08:58.549Z,24.20
2022-10-17T10:11:50.076Z,24.30
2022-10-17T10:14:39.888Z,24.30
2022-10-17T10:17:29.600Z,24.20
2022-10-17T10:19:57.969Z,24.00
2022-10-17T10:22:26.663Z,24.10
2022-10-17T10:25:27.132Z,24.10
2022-10-17T10:27:56.370Z,24.00
2022-10-17T10:30:32.801Z,23.50
2022-10-17T10:33:02.885Z,23.30
2022-10-17T10:35:36.414Z,23.60
2022-10-17T10:38:14.248Z,23.80
2022-10-17T10:40:48.397Z,24.10
2022-10-17T10:43:27.150Z,24.10
2022-10-17T10:45:55.475Z,24.10
2022-10-17T10:48:26.329Z,24.10
2022-10-17T10:51:00.477Z,23.90
2022-10-17T10:53:31.774Z,24.00
2022-10-17T10:56:09.607Z,24.10
2022-10-17T10:58:47.639Z,24.10
2022-10-17T11:01:24.161Z,24.10
2022-10-17T11:04:17.964Z,23.70
2022-10-17T11:06:48.270Z,23.70
2022-10-17T11:09:22.353Z,23.70
2022-10-17T11:12:22.662Z,23.60
2022-10-17T11:15:25.404Z,23.70
2022-10-17T11:18:11.234Z,23.50
2022-10-17T11:21:00.927Z,23.60
2022-10-17T11:23:49.750Z,23.70
2022-10-17T11:26:28.066Z,23.70
2022-10-17T11:29:03.033Z,23.70
2022-10-17T11:31:37.406Z,23.50
2022-10-17T11:34:29.996Z,23.60
2022-10-17T11:37:05.945Z,23.70
2022-10-17T11:39:51.085Z,23.90
2022-10-17T11:42:26.807Z,23.90
2022-10-17T11:45:24.659Z,24.00
2022-10-17T11:48:00.261Z,23.90
2022-10-17T11:53:49.732Z,24.00
2022-10-17T11:56:26.841Z,23.80
2022-10-17T11:59:10.454Z,24.00
2022-10-17T12:01:45.425Z,23.90
2022-10-17T12:04:34.470Z,24.00
2022-10-17T12:07:23.012Z,24.10
2022-10-17T12:10:08.086Z,24.10
2022-10-17T12:12:38.301Z,24.10
2022-10-17T12:15:12.102Z,24.00
2022-10-17T12:17:45.927Z,24.00
2022-10-17T12:20:25.961Z,23.90
2022-10-17T12:22:55.696Z,24.00
2022-10-17T12:25:33.905Z,24.10
2022-10-17T12:28:14.567Z,24.10
2022-10-17T12:31:10.307Z,24.10
2022-10-17T12:33:46.795Z,24.10
2022-10-17T12:36:23.921Z,24.10
2022-10-17T12:39:14.765Z,24.20
2022-10-17T12:41:44.465Z,24.20
2022-10-17T12:44:22.409Z,24.00
2022-10-17T12:46:51.359Z,24.10
2022-10-17T12:49:40.865Z,24.10
2022-10-17T12:52:29.820Z,24.20
2022-10-17T12:55:12.175Z,24.20
2022-10-17T12:58:01.701Z,24.30
2022-10-17T13:01:11.587Z,24.20
2022-10-17T13:03:44.553Z,24.10
2022-10-17T13:06:21.345Z,24.00
2022-10-17T13:09:03.902Z,23.90
2022-10-17T13:11:36.360Z,23.90
2022-10-17T13:14:14.753Z,23.90
2022-10-17T13:17:02.340Z,24.00
2022-10-17T13:19:43.176Z,24.10
2022-10-17T13:22:31.560Z,24.10
2022-10-17T13:25:21.938Z,24.10
2022-10-17T13:27:54.037Z,24.20
2022-10-17T13:30:31.950Z,24.00
2022-10-17T13:33:02.263Z,24.00
2022-10-17T13:35:58.795Z,24.00
2022-10-17T13:38:28.681Z,24.00
2022-10-17T13:41:06.089Z,24.00
2022-10-17T13:43:39.730Z,24.10
2022-10-17T13:46:36.292Z,24.10
2022-10-17T13:49:30.736Z,24.00
2022-10-17T13:52:00.679Z,24.00
2022-10-17T13:54:37.719Z,24.00
2022-10-17T13:57:17.927Z,24.10
2022-10-17T13:59:49.176Z,24.10
2022-10-17T14:02:24.028Z,23.90
2022-10-17T14:05:20.999Z,23.90
2022-10-17T14:08:14.500Z,23.90
2022-10-17T14:10:45.491Z,23.90
2022-10-17T14:13:28.872Z,23.90
2022-10-17T14:16:00.095Z,23.90
2022-10-17T14:18:38.705Z,23.90
2022-10-17T14:24:23.757Z,24.00
2022-10-17T14:26:54.767Z,24.10
2022-10-17T14:29:29.735Z,24.00
2022-10-17T14:32:05.052Z,23.90
2022-10-17T14:34:36.764Z,23.90
2022-10-17T14:37:40.073Z,23.80
2022-10-17T14:40:15.819Z,23.70
2022-10-17T14:42:45.145Z,23.70
2022-10-17T14:45:23.615Z,23.70
2022-10-17T14:47:55.225Z,23.70
2022-10-17T14:50:30.716Z,23.60
2022-10-17T14:53:23.346Z,23.60
2022-10-17T14:55:59.638Z,23.70
2022-10-17T14:58:30.819Z,23.70
2022-10-17T15:01:00.681Z,23.60
2022-10-17T15:03:29.359Z,23.40
2022-10-17T15:05:59.478Z,23.30
2022-10-17T15:08:27.677Z,23.30
2022-10-17T15:10:56.860Z,23.20
2022-10-17T15:13:27.959Z,23.20
2022-10-17T15:15:58.147Z,23.20
2022-10-17T15:18:26.922Z,23.20
2022-10-17T15:21:04.593Z,23.10
2022-10-17T15:23:35.190Z,23.10
2022-10-17T15:26:03.748Z,23.00
2022-10-17T15:28:31.869Z,23.00
2022-10-17T15:30:59.879Z,22.90
2022-10-17T15:33:28.337Z,22.90
2022-10-17T15:38:30.013Z,22.70
2022-10-17T15:40:58.928Z,22.70
2022-10-17T15:43:26.895Z,22.70
2022-10-17T15:45:55.558Z,22.60
2022-10-17T15:48:29.846Z,22.60
2022-10-17T15:51:00.878Z,22.50
2022-10-17T15:53:28.899Z,22.50
2022-10-17T15:55:56.867Z,22.40
2022-10-17T15:58:28.345Z,22.30
2022-10-17T16:00:57.226Z,22.20
2022-10-17T16:03:25.769Z,22.20
2022-10-17T16:05:54.176Z,22.10
2022-10-17T16:08:22.468Z,22.00
2022-10-17T16:10:51.451Z,21.90
2022-10-17T16:13:22.300Z,21.80
2022-10-17T16:15:50.724Z,21.70
2022-10-17T16:18:20.226Z,21.50
2022-10-17T16:20:48.709Z,21.50
2022-10-17T16:23:16.720Z,21.20
2022-10-17T16:25:45.734Z,21.10
2022-10-17T16:28:13.658Z,20.80
2022-10-17T16:30:45.118Z,20.50
2022-10-17T16:33:13.770Z,20.40
2022-10-17T16:35:41.951Z,20.40
2022-10-17T16:38:10.960Z,20.40
2022-10-17T16:40:40.101Z,20.30
2022-10-17T16:43:12.688Z,20.10
2022-10-17T16:45:41.734Z,19.90
2022-10-17T16:48:10.756Z,19.60
2022-10-17T16:50:42.284Z,19.40
2022-10-17T16:53:10.932Z,19.20
2022-10-17T16:55:40.616Z,19.10
2022-10-17T16:58:08.570Z,19.00
2022-10-17T17:00:39.325Z,19.00
2022-10-17T17:03:08.037Z,18.90
2022-10-17T17:05:36.005Z,18.70
2022-10-17T17:08:04.926Z,18.60
2022-10-17T17:10:35.561Z,18.50
2022-10-17T17:13:04.828Z,18.50
2022-10-17T17:15:33.410Z,18.40
2022-10-17T17:18:05.245Z,18.30
2022-10-17T17:20:34.494Z,18.20
2022-10-17T17:23:02.537Z,18.10
2022-10-17T17:25:30.568Z,18.10
2022-10-17T17:27:58.944Z,18.00
2022-10-17T17:30:27.155Z,17.90
2022-10-17T17:32:55.386Z,17.90
2022-10-17T17:35:24.354Z,17.80
2022-10-17T17:37:52.780Z,17.80
2022-10-17T17:40:21.142Z,17.80
2022-10-17T17:42:49.484Z,17.70
2022-10-17T17:45:18.034Z,17.60
2022-10-17T17:47:46.143Z,17.70
2022-10-17T17:50:14.672Z,17.70
2022-10-17T17:52:46.773Z,17.70
2022-10-17T17:55:15.155Z,17.70
2022-10-17T17:57:43.610Z,17.60
2022-10-17T18:00:12.483Z,17.40
2022-10-17T18:02:44.351Z,17.30
2022-10-17T18:05:12.731Z,17.30
2022-10-17T18:07:40.719Z,17.20
2022-10-17T18:10:09.527Z,17.20
2022-10-17T18:12:38.042Z,17.10
2022-10-17T18:15:07.280Z,17.00
2022-10-17T18:17:35.842Z,16.90
2022-10-17T18:20:06.533Z,16.70
2022-10-17T18:22:36.261Z,16.60
2022-10-17T18:25:06.902Z,16.50
2022-10-17T18:27:35.461Z,16.60
2022-10-17T18:30:06.417Z,16.60
2022-10-17T18:32:36.422Z,16.70
2022-10-17T18:35:04.851Z,16.70
2022-10-17T18:37:34.317Z,16.80
2022-10-17T18:40:03.273Z,16.90
2022-10-17T18:42:32.067Z,16.90
2022-10-17T18:45:03.330Z,16.90
2022-10-17T18:47:32.913Z,16.80
2022-10-17T18:50:01.155Z,16.70
2022-10-17T18:52:29.770Z,16.70
2022-10-17T18:54:58.032Z,16.80
2022-10-17T18:57:26.574Z,16.80
2022-10-17T18:59:54.487Z,16.80
2022-10-17T19:02:23.727Z,16.50
2022-10-17T19:04:52.115Z,16.30
2022-10-17T19:07:20.899Z,16.10
2022-10-17T19:09:50.063Z,16.00
2022-10-17T19:12:44.073Z,16.10
2022-10-17T19:15:12.515Z,16.10
2022-10-17T19:17:41.325Z,16.10
2022-10-17T19:20:10.667Z,16.10
2022-10-17T19:22:38.692Z,16.10
2022-10-17T19:25:07.518Z,16.10
2022-10-17T19:27:36.067Z,16.10
2022-10-17T19:30:04.855Z,16.20
2022-10-17T19:32:33.767Z,16.20
2022-10-17T19:35:02.703Z,16.30
2022-10-17T19:37:32.348Z,16.30
2022-10-17T19:40:00.566Z,16.30
2022-10-17T19:42:29.831Z,16.30
2022-10-17T19:44:58.929Z,16.20
2022-10-17T19:47:26.816Z,16.20
2022-10-17T19:49:55.082Z,16.20
2022-10-17T19:52:23.051Z,16.20
2022-10-17T19:54:54.486Z,16.10
2022-10-17T19:57:25.788Z,16.10
2022-10-17T19:59:56.044Z,16.00
2022-10-17T20:02:24.767Z,16.00
2022-10-17T20:05:06.304Z,16.00
2022-10-17T20:08:06.293Z,15.90
2022-10-17T20:10:35.062Z,15.80
2022-10-17T20:13:03.169Z,15.80
2022-10-17T20:15:31.143Z,15.80
2022-10-17T20:17:59.248Z,15.80
2022-10-17T20:20:28.586Z,15.80
2022-10-17T20:22:56.720Z,15.80
2022-10-17T20:25:25.227Z,15.70
2022-10-17T20:27:53.962Z,15.70
2022-10-17T20:30:22.238Z,15.60
2022-10-17T20:32:55.092Z,15.50
2022-10-17T20:35:24.243Z,15.50
2022-10-17T20:37:53.327Z,15.50
2022-10-17T20:40:37.152Z,15.50
2022-10-17T20:43:07.753Z,15.50
2022-10-17T20:45:50.777Z,15.60
2022-10-17T20:48:19.750Z,15.60
2022-10-17T20:50:48.986Z,15.50
2022-10-17T20:53:36.109Z,15.50
2022-10-17T20:56:08.852Z,15.40
2022-10-17T20:58:37.817Z,15.40
2022-10-17T21:01:10.271Z,15.40
2022-10-17T21:03:42.577Z,15.30
2022-10-17T21:06:15.765Z,15.30
2022-10-17T21:08:44.787Z,15.20
2022-10-17T21:11:15.889Z,15.10
2022-10-17T21:13:44.971Z,14.90
2022-10-17T21:16:17.979Z,14.90
2022-10-17T21:18:46.662Z,14.80
2022-10-17T21:21:20.972Z,14.80
2022-10-17T21:23:51.184Z,14.70
2022-10-17T21:26:19.403Z,14.80
2022-10-17T21:28:48.878Z,14.90
2022-10-17T21:31:22.213Z,14.90
2022-10-17T21:33:51.841Z,14.80
2022-10-17T21:36:21.176Z,14.80
2022-10-17T21:38:50.663Z,14.80
2022-10-17T21:41:21.016Z,14.70
2022-10-17T21:43:53.669Z,14.80
2022-10-17T21:46:23.025Z,14.70
2022-10-17T21:48:52.007Z,14.60
2022-10-17T21:51:23.138Z,14.60
2022-10-17T21:53:52.545Z,14.60
2022-10-17T21:56:22.764Z,14.60
2022-10-17T21:58:52.218Z,14.60
2022-10-17T22:01:23.544Z,14.60
2022-10-17T22:03:55.857Z,14.60
2022-10-17T22:06:43.010Z,14.60
2022-10-17T22:09:16.121Z,14.50
2022-10-17T22:11:50.589Z,14.50
2022-10-17T22:14:22.141Z,14.50
2022-10-17T22:16:50.842Z,14.50
2022-10-17T22:19:22.568Z,14.50
2022-10-17T22:21:51.350Z,14.60
2022-10-17T22:26:54.724Z,14.60
2022-10-17T22:29:22.743Z,14.50
2022-10-17T22:31:51.225Z,14.50
2022-10-17T22:34:19.940Z,14.50
2022-10-17T22:36:49.064Z,14.40
2022-10-17T22:39:17.214Z,14.40
2022-10-17T22:41:45.323Z,14.20
2022-10-17T22:44:13.893Z,14.10
2022-10-17T22:46:41.820Z,14.00
2022-10-17T22:49:09.977Z,13.90
2022-10-17T22:51:38.221Z,13.80
2022-10-17T22:54:06.707Z,13.80
2022-10-17T22:56:35.190Z,13.80
2022-10-17T22:59:04.494Z,13.80
2022-10-17T23:01:32.538Z,13.90
2022-10-17T23:04:00.649Z,14.00
2022-10-17T23:06:29.099Z,14.00
2022-10-17T23:08:57.649Z,14.00
2022-10-17T23:11:26.170Z,14.00
2022-10-17T23:13:54.212Z,14.00
2022-10-17T23:16:22.783Z,14.00
2022-10-17T23:18:50.889Z,14.00
2022-10-17T23:21:18.836Z,14.00
2022-10-17T23:23:47.618Z,14.10
2022-10-17T23:26:15.956Z,14.10
2022-10-17T23:28:44.001Z,14.10
2022-10-17T23:31:18.198Z,14.10
2022-10-17T23:33:48.906Z,14.00
2022-10-17T23:36:19.595Z,14.00
2022-10-17T23:38:49.029Z,14.00
2022-10-17T23:41:17.801Z,14.00
2022-10-17T23:43:45.821Z,14.00
2022-10-17T23:46:14.879Z,13.90
2022-10-17T23:48:43.045Z,13.90
2022-10-17T23:51:11.482Z,13.90
2022-10-17T23:53:40.725Z,13.90
2022-10-17T23:56:10.762Z,13.80
2022-10-17T23:58:39.758Z,13.80
